Panama City, FL

3:12 AM CST on November 23, 2014 (GMT -0600)
Millville | Change Station
CLOSE
Current Station
Personal Weather Station
Location: Panama City, FL
Elevation: 20 ft
Nearby Weather Stations

Elev 20 ft 30.15 °N, 85.63 °W | Updated 1 minute ago

Overcast
Overcast
66.3 °F
Feels Like 66.3 °F
N
0.0
Wind Variable Wind from ESE
Gusts 7.0 mph

Today
High -- | Low -- °F
--% Chance of Precip.
Yesterday
High -- | Low -- °F
Precip. -- in
6:14 AM 4:43 PM
New Moon, 1% visible
Pressure 29.91 in
Visibility 10.0 miles
Clouds Overcast 800 ft
Dew Point 61 °F
Humidity 84%
Rainfall 0.03 in
Snow Depth Not available.
UV 0 out of 12
Pollen 2.90 out of 12
Air Quality Not available.
Flu Activity Not available.
METAR KPAM 230858Z AUTO 13015G20KT 10SM -DZ OVC008 20/20 A2990 RMK AO2 SLP128 P0000 60034 57035 $

More Conditions Fewer Conditions

Pressure 29.91 in
Visibility 10.0 miles
Clouds Overcast 800 ft
Dew Point 61 °F
Humidity 84%
Rainfall 0.03 in
Snow Depth Not available.
UV 0 out of 12
Pollen 2.90 out of 12
Air Quality Not available.
Flu Activity Not available.
METAR KPAM 230858Z AUTO 13015G20KT 10SM -DZ OVC008 20/20 A2990 RMK AO2 SLP128 P0000 60034 57035 $

More Conditions Fewer Conditions

10-Day Weather Forecast

Almanac

Astronomy

Nov. 23, 2014 Rise Set
Actual Time
Civil Twilight
Nautical Twilight
Astronomical Twilight
Moon
Length of Visible Light
Length of Day
Tomorrow will be .
, % of the Moon is Illuminated

Today's Extremes

State Highs State Lows

Community

WunderPhotos

Upload Photos

1,773,024 photos uploaded!

WunderBlogs® & News

Nearby

Air Quality

  Air Quality AQ Index Pollutant
Not available.

Snow Depth

Station Depth Elevation

Earthquake Activity

City Distance Mag. Time & Date
Minimum magnitude displayed is 2.5.

Coastal Water Temperatures

Place Temperature

Nearby Weather Stations